Decoded Metar for GCHI (HIERRO in SPAIN) (IATA:VDE) | Meteo·Mobile Aviation Weather
aviador You're here:

GCHI Decoded Metar

HIERRO in SPAIN
Report Time2019-02-17 08:00:00
UTC Time2019-02-17 08:11:45
Flight Rules vfr VFR
Wind330° at 08 kt
W.Decomp.*RWY 34: 8.0 kt HW 0.4 kt LCW
W.Rank330° ranks 9
Current wind is below 330° avg. (12.8)
Visibility9999 m
Phenomena:N/A
Clouds:Few 025 Hf
Expected CloudBase > 1,200 ft AGL from Temp-Dew spread
CeilingNone
Temp16°C (ISA +1)
Dew Point13°C (83% RH)
AAT14.1°C
QNH1023 hPa
Density Alt102 ft
Elevation98 ft
Report Wrong Elevation
Raw Report
METAR GCHI 170800Z 33008KT 9999 FEW025 16/13 Q1023=

Extra information for GCHI:More info

Metar Taf Metar & Taf Last 4 Metars F.Rules Stats Wind Profile Meteogram Temp Stats Airport Information Weather charts Add Link Nearby VenuesMetar ALERT Operation Metar Decoded Social comments